Time;durP1;ratioP1;P1;durP2;ratioP2;P2;SDS_P1;SDS_P2;PMS_P1;PMS_P2;Temp;Humidity;BMP_temperature;BMP_pressure;BME280_temperature;BME280_humidity;BME280_pressure;Samples;Min_cycle;Max_cycle;Signal;HPM_P1;HPM_P2
2021/06/25 00:02:20;;;;;;;12.38;6.20;;;18.60;70.80;;;;;;5056249;28;19904;-73
2021/06/25 00:04:46;;;;;;;;;;;18.70;70.30;;;;;;5056900;28;20036;-72
2021/06/25 00:07:12;;;;;;;10.77;6.15;;;18.70;70.40;;;;;;5056401;28;19989;-73
2021/06/25 00:09:37;;;;;;;;;;;18.70;70.50;;;;;;5056657;28;20045;-73
2021/06/25 00:12:06;;;;;;;12.00;6.07;;;18.60;70.80;;;;;;5056156;28;19971;-74
2021/06/25 00:14:33;;;;;;;11.00;6.05;;;18.70;70.60;;;;;;5054712;28;20588;-73
2021/06/25 00:16:59;;;;;;;11.98;6.40;;;18.60;70.70;;;;;;5055956;28;20492;-73
2021/06/25 00:19:24;;;;;;;12.98;6.60;;;18.60;70.80;;;;;;5056044;28;20032;-74
2021/06/25 00:21:50;;;;;;;14.07;6.38;;;18.70;70.70;;;;;;5055842;28;20024;-73
2021/06/25 00:24:16;;;;;;;;;;;18.20;72.90;;;;;;5056108;28;20392;-74
2021/06/25 00:26:42;;;;;;;12.75;7.15;;;18.10;73.10;;;;;;5056265;28;19905;-75
2021/06/25 00:29:07;;;;;;;;;;;17.90;73.80;;;;;;5056171;28;20025;-73
2021/06/25 00:31:33;;;;;;;13.38;7.03;;;17.60;74.90;;;;;;5055722;28;19904;-74
2021/06/25 00:33:59;;;;;;;;;;;17.50;75.70;;;;;;5056277;28;20120;-72
2021/06/25 00:36:25;;;;;;;11.90;6.97;;;17.40;76.00;;;;;;5055597;28;19913;-72
2021/06/25 00:38:50;;;;;;;;;;;17.10;76.60;;;;;;5055982;28;20029;-73
2021/06/25 00:41:16;;;;;;;12.80;6.75;;;17.00;77.40;;;;;;5054184;28;19908;-74
2021/06/25 00:43:41;;;;;;;;;;;16.90;77.60;;;;;;5055960;28;20028;-73
2021/06/25 00:46:07;;;;;;;13.13;6.78;;;16.80;77.80;;;;;;5055577;28;19911;-72
2021/06/25 00:48:33;;;;;;;;;;;16.60;78.30;;;;;;5055829;28;20021;-73
2021/06/25 00:50:58;;;;;;;12.88;6.93;;;16.80;78.00;;;;;;5055374;28;19991;-73
2021/06/25 00:53:24;;;;;;;;;;;17.00;77.00;;;;;;5056076;28;20025;-71
2021/06/25 00:55:50;;;;;;;11.90;6.60;;;17.10;76.60;;;;;;5055288;28;19909;-74
2021/06/25 00:58:16;;;;;;;;;;;17.10;76.50;;;;;;5055819;28;20465;-73
2021/06/25 01:00:43;;;;;;;11.48;6.22;;;17.10;76.90;;;;;;5055242;28;19905;-74
2021/06/25 01:03:10;;;;;;;13.38;6.47;;;17.00;77.40;;;;;;5055006;28;20497;-72
2021/06/25 01:05:36;;;;;;;13.80;6.80;;;16.90;77.70;;;;;;5054138;28;20452;-74
2021/06/25 01:08:04;;;;;;;13.30;6.57;;;16.80;78.20;;;;;;5055244;28;20047;-74
2021/06/25 01:10:30;;;;;;;10.77;6.05;;;16.90;77.80;;;;;;5053302;28;20040;-72
2021/06/25 01:12:56;;;;;;;;;;;17.00;77.50;;;;;;5054941;28;20021;-75
2021/06/25 01:15:22;;;;;;;12.68;5.82;;;17.20;77.00;;;;;;5054898;28;20430;-73
2021/06/25 01:17:47;;;;;;;;;;;17.10;77.20;;;;;;5055216;28;20051;-73
2021/06/25 01:20:25;;;;;;;10.48;5.93;;;17.30;76.10;;;;;;5054780;28;19992;-73
2021/06/25 01:22:51;;;;;;;11.40;5.85;;;17.30;75.50;;;;;;5054687;28;20036;-73
2021/06/25 01:25:28;;;;;;;10.80;6.20;;;17.30;76.10;;;;;;5054594;28;20064;-74
2021/06/25 01:27:59;;;;;;;9.98;6.03;;;17.40;75.50;;;;;;5054787;28;20021;-74
2021/06/25 01:30:32;;;;;;;11.00;6.38;;;17.30;76.10;;;;;;5054719;28;20025;-72
2021/06/25 01:32:59;;;;;;;13.07;6.20;;;17.40;75.70;;;;;;5054588;28;20017;-74
2021/06/25 01:35:25;;;;;;;12.73;6.75;;;17.60;74.90;;;;;;5054485;28;20035;-73
2021/06/25 01:37:51;;;;;;;;;;;17.80;74.20;;;;;;5054524;28;20045;-72
2021/06/25 01:40:18;;;;;;;10.65;6.30;;;17.70;74.50;;;;;;5054402;28;20391;-74
2021/06/25 01:42:46;;;;;;;10.48;5.60;;;17.30;75.40;;;;;;5054360;28;20090;-74
2021/06/25 01:45:18;;;;;;;10.73;5.70;;;17.50;75.20;;;;;;5052940;28;20461;-74
2021/06/25 01:47:46;;;;;;;11.52;6.30;;;17.60;74.50;;;;;;5054223;28;20100;-75
2021/06/25 01:50:26;;;;;;;13.45;6.53;;;17.70;74.20;;;;;;5054228;28;20072;-73
2021/06/25 01:53:01;;;;;;;11.35;6.25;;;17.40;75.40;;;;;;5054230;28;20444;-74
2021/06/25 01:55:28;;;;;;;11.13;6.50;;;17.20;76.60;;;;;;5054353;28;20100;-73
2021/06/25 01:57:54;;;;;;;9.45;5.80;;;17.30;76.10;;;;;;5054013;28;20021;-74
2021/06/25 02:00:21;;;;;;;11.55;6.40;;;17.60;74.90;;;;;;5053977;28;20422;-72
2021/06/25 02:02:47;;;;;;;12.13;6.18;;;17.80;73.80;;;;;;5054160;28;20021;-74
2021/06/25 02:05:14;;;;;;;;;;;17.70;74.00;;;;;;5054536;28;20032;-73
2021/06/25 02:07:40;;;;;;;9.57;5.50;;;17.60;74.60;;;;;;5053872;28;20026;-72
2021/06/25 02:10:08;;;;;;;10.52;6.00;;;17.50;74.90;;;;;;5054077;28;20513;-73
2021/06/25 02:12:36;;;;;;;10.88;6.22;;;17.30;75.90;;;;;;5053772;28;20014;-74
2021/06/25 02:15:06;;;;;;;11.75;6.15;;;17.30;75.80;;;;;;5053714;28;20127;-74
2021/06/25 02:17:32;;;;;;;12.60;6.70;;;17.50;75.20;;;;;;5053813;28;20021;-74
2021/06/25 02:19:58;;;;;;;;;;;17.50;75.10;;;;;;5054088;28;20074;-73
2021/06/25 02:22:24;;;;;;;10.13;5.32;;;17.40;75.50;;;;;;5054004;28;19915;-74
2021/06/25 02:24:49;;;;;;;;;;;17.50;75.20;;;;;;5053898;28;20025;-73
2021/06/25 02:27:15;;;;;;;10.13;5.68;;;17.50;75.00;;;;;;5053698;28;19905;-72
2021/06/25 02:29:41;;;;;;;;;;;17.50;75.30;;;;;;5053973;28;20096;-73
2021/06/25 02:32:07;;;;;;;9.00;5.20;;;17.60;75.00;;;;;;5053580;28;19915;-74
2021/06/25 02:34:33;;;;;;;9.75;5.60;;;17.50;75.00;;;;;;5053831;28;20049;-74
2021/06/25 02:36:58;;;;;;;;;;;17.60;75.10;;;;;;5053702;28;20453;-73
2021/06/25 02:39:24;;;;;;;8.65;4.78;;;17.70;74.60;;;;;;5053423;28;20314;-72
2021/06/25 02:41:50;;;;;;;;;;;17.80;74.10;;;;;;5053743;28;20423;-74
2021/06/25 02:44:16;;;;;;;9.98;5.63;;;17.60;74.10;;;;;;5053603;28;19908;-74
2021/06/25 02:46:41;;;;;;;;;;;17.80;74.90;;;;;;5053651;28;20020;-73
2021/06/25 02:49:07;;;;;;;10.65;5.75;;;17.70;74.80;;;;;;5053197;28;19987;-73
2021/06/25 02:51:33;;;;;;;9.30;5.45;;;17.80;74.30;;;;;;5053206;28;20021;-73
2021/06/25 02:53:59;;;;;;;;;;;17.90;74.20;;;;;;5052224;28;20090;-73
2021/06/25 02:56:25;;;;;;;10.82;5.10;;;18.00;74.00;;;;;;5053426;28;19905;-74
2021/06/25 02:58:50;;;;;;;;;;;18.00;73.60;;;;;;5053565;28;20025;-74
2021/06/25 03:01:16;;;;;;;9.43;5.28;;;18.00;74.00;;;;;;5053112;28;20312;-73
2021/06/25 03:03:42;;;;;;;;;;;17.90;74.20;;;;;;5053379;28;20067;-74
2021/06/25 03:06:07;;;;;;;9.40;5.00;;;18.00;74.50;;;;;;5053037;28;20279;-74
2021/06/25 03:08:33;;;;;;;;;;;18.00;74.20;;;;;;5053455;28;20025;-73
2021/06/25 03:11:00;;;;;;;10.38;5.15;;;18.10;73.50;;;;;;5053057;28;20369;-73
2021/06/25 03:13:26;;;;;;;9.00;5.30;;;18.10;73.30;;;;;;5051663;28;20025;-73
2021/06/25 03:15:53;;;;;;;8.18;4.53;;;18.10;73.30;;;;;;5053062;28;20393;-74
2021/06/25 03:18:19;;;;;;;9.65;5.07;;;18.10;73.80;;;;;;5052901;28;20033;-73
2021/06/25 03:20:45;;;;;;;;;;;18.20;73.70;;;;;;5053391;28;20170;-72
2021/06/25 03:23:11;;;;;;;10.15;5.22;;;18.20;73.60;;;;;;5052956;28;19996;-74
2021/06/25 03:25:37;;;;;;;;;;;18.10;74.70;;;;;;5053244;28;20107;-74
2021/06/25 03:28:03;;;;;;;10.10;5.50;;;18.10;75.20;;;;;;5053137;28;19904;-74
2021/06/25 03:30:31;;;;;;;10.32;5.60;;;18.00;75.20;;;;;;5052795;28;20017;-73
2021/06/25 03:32:56;;;;;;;12.23;6.03;;;18.00;75.10;;;;;;5051470;28;20052;-71
2021/06/25 03:35:22;;;;;;;;;;;17.60;75.90;;;;;;5056195;28;20060;-73
2021/06/25 03:37:48;;;;;;;10.10;5.55;;;17.70;76.80;;;;;;5056382;28;20302;-74
2021/06/25 03:40:14;;;;;;;;;;;17.60;77.70;;;;;;5057121;28;20573;-73
2021/06/25 03:42:42;;;;;;;9.85;5.40;;;17.70;77.40;;;;;;5056686;28;19963;-73
2021/06/25 03:45:09;;;;;;;11.27;6.38;;;17.90;77.10;;;;;;5056497;28;20531;-73
2021/06/25 03:47:35;;;;;;;11.30;6.20;;;17.90;76.50;;;;;;5056547;28;20029;-73
2021/06/25 03:50:01;;;;;;;;;;;17.80;77.40;;;;;;5057079;28;20028;-74
2021/06/25 03:52:26;;;;;;;13.13;6.80;;;17.70;77.60;;;;;;5056596;28;19909;-73
2021/06/25 03:54:52;;;;;;;;;;;17.60;77.50;;;;;;5056808;28;20390;-74
2021/06/25 03:57:18;;;;;;;14.50;6.03;;;17.50;79.10;;;;;;5056355;28;19905;-73
2021/06/25 03:59:43;;;;;;;;;;;17.70;78.90;;;;;;5056724;28;20029;-71
2021/06/25 04:02:10;;;;;;;11.70;6.20;;;17.60;78.30;;;;;;5056341;28;19909;-73
2021/06/25 04:04:37;;;;;;;10.88;6.30;;;17.50;78.60;;;;;;5054830;28;20116;-74
2021/06/25 04:07:04;;;;;;;11.52;5.95;;;17.40;79.70;;;;;;5056140;28;20047;-73
2021/06/25 04:09:31;;;;;;;11.38;6.72;;;17.50;79.00;;;;;;5056265;28;20032;-75
2021/06/25 04:11:57;;;;;;;10.02;6.07;;;17.50;78.40;;;;;;5056045;28;20104;-73
2021/06/25 04:14:22;;;;;;;12.23;6.43;;;17.60;78.90;;;;;;5055999;28;20086;-74
2021/06/25 04:16:48;;;;;;;;;;;17.60;79.20;;;;;;5056402;28;20021;-73
2021/06/25 04:19:14;;;;;;;11.40;6.10;;;17.70;78.20;;;;;;5055984;28;19904;-74
2021/06/25 04:21:40;;;;;;;;;;;17.80;78.10;;;;;;5056319;28;20021;-73
2021/06/25 04:24:06;;;;;;;9.18;5.57;;;17.80;77.90;;;;;;5055924;28;20280;-74
2021/06/25 04:26:32;;;;;;;9.80;5.80;;;17.90;77.80;;;;;;5055822;28;20115;-73
2021/06/25 04:28:58;;;;;;;9.82;5.78;;;17.90;78.30;;;;;;5055841;28;20256;-74
2021/06/25 04:31:23;;;;;;;;;;;17.90;77.70;;;;;;5056195;28;20028;-74
2021/06/25 04:33:49;;;;;;;10.13;5.63;;;17.90;78.00;;;;;;5055963;28;20023;-73
2021/06/25 04:36:15;;;;;;;;;;;17.90;78.20;;;;;;5055854;28;20049;-73
2021/06/25 04:38:41;;;;;;;10.50;5.75;;;17.90;78.20;;;;;;5055640;28;19906;-74
2021/06/25 04:41:07;;;;;;;;;;;17.70;78.40;;;;;;5055981;28;20392;-73
2021/06/25 04:43:32;;;;;;;10.43;5.47;;;17.80;78.10;;;;;;5055824;28;19912;-74
2021/06/25 04:45:59;;;;;;;;;;;17.80;78.80;;;;;;5054703;28;20029;-74
2021/06/25 04:48:26;;;;;;;11.32;6.78;;;17.90;77.80;;;;;;5055458;28;19905;-74
2021/06/25 04:50:52;;;;;;;10.90;6.30;;;17.80;77.70;;;;;;5055447;28;20052;-73
2021/06/25 04:53:17;;;;;;;;;;;17.80;77.90;;;;;;5055765;28;20029;-73
2021/06/25 04:55:45;;;;;;;11.13;5.63;;;17.70;78.20;;;;;;5055712;28;19905;-73
2021/06/25 04:58:13;;;;;;;12.15;5.75;;;17.70;78.80;;;;;;5055206;28;20100;-75
2021/06/25 05:00:40;;;;;;;14.05;7.35;;;17.80;78.40;;;;;;5055372;28;20021;-74
2021/06/25 05:03:06;;;;;;;12.13;6.30;;;17.60;78.70;;;;;;5055103;28;20082;-73
2021/06/25 05:05:33;;;;;;;11.05;5.80;;;17.80;78.50;;;;;;5055092;28;20542;-73
2021/06/25 05:07:59;;;;;;;12.10;5.97;;;17.90;78.20;;;;;;5054987;28;20022;-74
2021/06/25 05:10:25;;;;;;;;;;;18.00;77.80;;;;;;5054138;28;20028;-74
2021/06/25 05:12:52;;;;;;;10.70;5.70;;;17.90;78.10;;;;;;5055030;28;19991;-72
2021/06/25 05:15:19;;;;;;;12.90;6.65;;;18.00;78.10;;;;;;5054680;28;20103;-74
2021/06/25 05:17:46;;;;;;;11.80;6.57;;;17.90;78.30;;;;;;5054875;28;20021;-73
2021/06/25 05:20:12;;;;;;;12.25;6.45;;;17.90;78.30;;;;;;5054874;28;20029;-74
2021/06/25 05:22:38;;;;;;;14.43;6.65;;;17.50;79.70;;;;;;5054647;28;20021;-74
2021/06/25 05:25:04;;;;;;;;;;;17.60;79.80;;;;;;5055068;28;20041;-72
2021/06/25 05:27:30;;;;;;;10.65;5.45;;;17.70;79.60;;;;;;5054714;28;19999;-73
2021/06/25 05:29:55;;;;;;;;;;;17.80;79.40;;;;;;5055053;28;20512;-73
2021/06/25 05:32:21;;;;;;;12.02;5.80;;;17.90;79.00;;;;;;5054694;28;20365;-74
2021/06/25 05:34:47;;;;;;;;;;;17.90;78.80;;;;;;5055010;28;20066;-73
2021/06/25 05:37:13;;;;;;;14.70;5.90;;;18.10;78.10;;;;;;5054160;28;19970;-74
2021/06/25 05:39:40;;;;;;;10.63;5.95;;;18.20;77.70;;;;;;5054870;28;20029;-71
2021/06/25 05:42:06;;;;;;;11.13;5.93;;;18.20;77.40;;;;;;5054562;28;20040;-72
2021/06/25 05:44:32;;;;;;;;;;;18.30;77.40;;;;;;5054719;28;20393;-74
2021/06/25 05:46:57;;;;;;;14.73;5.90;;;18.30;77.60;;;;;;5054539;28;19996;-75
2021/06/25 05:49:23;;;;;;;;;;;18.20;77.90;;;;;;5054709;28;20067;-74
2021/06/25 05:51:49;;;;;;;11.02;6.53;;;18.30;77.90;;;;;;5054167;28;19905;-74
2021/06/25 05:54:16;;;;;;;11.95;6.38;;;17.90;79.80;;;;;;5054348;28;20369;-73
2021/06/25 05:56:43;;;;;;;11.70;6.65;;;18.00;80.30;;;;;;5053909;28;20040;-73
2021/06/25 05:59:08;;;;;;;11.32;6.68;;;18.10;80.20;;;;;;5053922;28;20489;-74
2021/06/25 06:01:34;;;;;;;11.55;6.03;;;18.10;80.00;;;;;;5053968;28;20056;-75
2021/06/25 06:04:00;;;;;;;;;;;18.00;80.40;;;;;;5053047;28;20029;-73
2021/06/25 06:06:25;;;;;;;12.45;5.72;;;18.00;80.70;;;;;;5054063;28;19927;-73
2021/06/25 06:08:51;;;;;;;;;;;18.20;80.60;;;;;;5054274;28;20028;-74
2021/06/25 06:11:17;;;;;;;11.25;5.72;;;18.30;79.60;;;;;;5054289;28;19916;-74
2021/06/25 06:13:42;;;;;;;;;;;18.20;79.50;;;;;;5054515;28;20163;-74
2021/06/25 06:16:08;;;;;;;13.18;6.10;;;18.30;79.50;;;;;;5053794;28;19957;-73
2021/06/25 06:18:44;;;;;;;;;;;18.30;79.40;;;;;;5054090;28;20079;-74
2021/06/25 06:21:12;;;;;;;13.75;6.70;;;18.50;78.80;;;;;;5052160;28;20375;-74
2021/06/25 06:34:24;;;;;;;13.55;6.80;;;18.90;77.40;;;;;;5053515;28;20033;-74
2021/06/25 06:36:50;;;;;;;12.80;6.40;;;19.00;75.60;;;;;;5053547;28;20064;-73
2021/06/25 06:39:17;;;;;;;14.90;6.95;;;19.00;75.80;;;;;;5053360;28;20021;-73
2021/06/25 06:41:42;;;;;;;15.32;6.95;;;19.20;73.50;;;;;;5053323;28;20029;-73
2021/06/25 06:44:09;;;;;;;13.85;5.78;;;19.20;72.80;;;;;;5051906;28;20551;-73
2021/06/25 06:46:35;;;;;;;10.43;5.70;;;19.40;73.30;;;;;;5053290;28;20043;-73
2021/06/25 06:49:04;;;;;;;13.30;6.20;;;19.70;71.30;;;;;;5053157;28;20025;-74
2021/06/25 06:51:30;;;;;;;14.60;6.32;;;19.90;70.30;;;;;;5053363;28;20021;-73
2021/06/25 06:54:00;;;;;;;12.60;5.05;;;20.10;68.60;;;;;;5053216;28;20028;-74
2021/06/25 06:56:26;;;;;;;10.82;5.18;;;19.90;68.10;;;;;;5053126;28;20072;-74
2021/06/25 06:58:53;;;;;;;11.68;5.60;;;20.10;65.90;;;;;;5053141;28;20070;-72
2021/06/25 07:01:20;;;;;;;14.82;5.60;;;20.10;67.10;;;;;;5053318;28;20029;-74
2021/06/25 07:03:46;;;;;;;10.07;5.13;;;20.30;67.30;;;;;;5053009;28;20437;-73
2021/06/25 07:06:13;;;;;;;14.45;5.60;;;20.50;66.50;;;;;;5053023;28;20048;-74
2021/06/25 07:08:39;;;;;;;13.27;5.90;;;20.20;67.00;;;;;;5052517;28;20021;-74
2021/06/25 07:11:05;;;;;;;12.48;5.90;;;20.20;67.40;;;;;;5052841;28;20032;-74
2021/06/25 07:13:30;;;;;;;18.38;6.32;;;20.30;67.40;;;;;;5053412;28;20051;-73
2021/06/25 07:15:56;;;;;;;11.10;5.45;;;20.00;68.30;;;;;;5052919;28;20036;-74
2021/06/25 07:18:23;;;;;;;12.75;5.90;;;19.90;69.80;;;;;;5053118;28;20082;-74
2021/06/25 07:20:49;;;;;;;12.52;6.05;;;20.20;68.50;;;;;;5052877;28;20025;-73
2021/06/25 07:23:15;;;;;;;11.32;6.03;;;20.40;68.30;;;;;;5053009;28;20096;-74
2021/06/25 07:25:41;;;;;;;11.25;5.80;;;20.50;67.90;;;;;;5052645;28;20035;-73
2021/06/25 07:28:07;;;;;;;14.00;5.60;;;20.70;68.00;;;;;;5052846;28;20021;-73
2021/06/25 07:30:35;;;;;;;10.27;5.57;;;20.90;67.40;;;;;;5051536;28;20025;-75
2021/06/25 07:33:06;;;;;;;11.85;6.10;;;21.00;66.90;;;;;;5051970;28;20405;-74
2021/06/25 07:35:33;;;;;;;16.85;6.32;;;21.00;67.00;;;;;;5053014;28;20033;-72
2021/06/25 07:37:59;;;;;;;13.02;6.28;;;21.00;66.90;;;;;;5050995;28;20207;-73
2021/06/25 07:40:24;;;;;;;9.80;5.53;;;21.10;67.00;;;;;;5052677;28;20491;-74
2021/06/25 07:42:50;;;;;;;15.10;6.75;;;21.40;66.30;;;;;;5052667;28;20063;-73
2021/06/25 07:45:17;;;;;;;10.77;6.20;;;21.50;65.20;;;;;;5052635;28;20432;-74
2021/06/25 07:47:44;;;;;;;11.32;5.95;;;21.70;65.10;;;;;;5051352;28;20026;-73
2021/06/25 07:50:18;;;;;;;10.55;5.45;;;21.80;64.60;;;;;;5052915;28;20392;-74
2021/06/25 07:52:44;;;;;;;10.73;5.88;;;21.70;64.50;;;;;;5054432;28;20036;-73
2021/06/25 07:55:12;;;;;;;10.90;5.30;;;21.80;64.40;;;;;;5052596;28;20557;-75
2021/06/25 07:57:41;;;;;;;11.05;5.03;;;21.80;64.50;;;;;;5052532;28;20021;-73
2021/06/25 08:00:09;;;;;;;11.30;5.40;;;22.00;62.40;;;;;;5052443;28;20049;-74
2021/06/25 08:02:34;;;;;;;11.40;5.35;;;22.10;62.90;;;;;;5052446;28;20444;-74
2021/06/25 08:05:00;;;;;;;14.07;5.55;;;22.00;63.00;;;;;;5052397;28;20074;-74
2021/06/25 08:07:26;;;;;;;13.27;5.60;;;22.00;62.40;;;;;;5052439;28;20119;-73
2021/06/25 08:09:51;;;;;;;13.85;5.22;;;22.10;62.10;;;;;;5052447;28;20375;-73
2021/06/25 08:12:17;;;;;;;13.70;5.18;;;22.20;61.80;;;;;;5052638;28;20064;-73
2021/06/25 08:14:43;;;;;;;10.57;4.70;;;22.30;60.60;;;;;;5051104;28;20025;-73
2021/06/25 08:17:09;;;;;;;12.68;4.60;;;22.30;59.80;;;;;;5052217;28;20029;-74
2021/06/25 08:19:35;;;;;;;11.02;4.78;;;22.20;59.50;;;;;;5052336;28;20028;-74
2021/06/25 08:22:01;;;;;;;14.00;4.53;;;22.70;58.50;;;;;;5055540;28;20025;-74
2021/06/25 08:24:27;;;;;;;11.77;4.63;;;22.70;58.00;;;;;;5055807;28;20025;-73
2021/06/25 08:26:54;;;;;;;9.85;4.50;;;22.70;57.50;;;;;;5055997;28;20021;-73
2021/06/25 08:29:20;;;;;;;10.70;4.50;;;22.60;57.30;;;;;;5055845;28;20017;-74
2021/06/25 08:31:48;;;;;;;13.93;4.82;;;22.50;58.10;;;;;;5055712;28;20181;-73
2021/06/25 08:34:14;;;;;;;9.77;4.32;;;22.30;58.30;;;;;;5055695;28;20021;-73
2021/06/25 08:36:40;;;;;;;13.18;4.78;;;22.50;58.10;;;;;;5055480;28;20166;-74
2021/06/25 08:39:06;;;;;;;13.40;4.55;;;22.30;57.60;;;;;;5055795;28;20021;-73
2021/06/25 08:41:34;;;;;;;13.80;4.75;;;22.20;57.90;;;;;;5055673;28;20100;-74
2021/06/25 08:44:00;;;;;;;10.75;4.13;;;22.30;57.70;;;;;;5055488;28;20021;-73
2021/06/25 08:46:30;;;;;;;9.82;4.30;;;22.30;57.50;;;;;;5055711;28;20028;-73
2021/06/25 08:48:58;;;;;;;12.40;4.38;;;22.40;57.90;;;;;;5055441;28;20013;-74
2021/06/25 08:51:25;;;;;;;33.28;6.38;;;22.20;58.60;;;;;;5055388;28;20083;-75
2021/06/25 08:53:52;;;;;;;11.00;4.00;;;22.10;58.90;;;;;;5055331;28;20021;-71
2021/06/25 08:56:18;;;;;;;11.82;4.15;;;22.20;58.70;;;;;;5055287;28;20400;-73
2021/06/25 08:58:43;;;;;;;8.95;3.83;;;22.10;58.50;;;;;;5055214;28;20035;-73
2021/06/25 09:01:11;;;;;;;10.85;4.00;;;22.00;58.00;;;;;;5055188;28;20032;-74
2021/06/25 09:03:40;;;;;;;12.65;4.25;;;22.20;57.50;;;;;;5055131;28;20033;-73
2021/06/25 09:06:11;;;;;;;11.05;3.83;;;22.10;57.60;;;;;;5055133;28;20033;-73
2021/06/25 09:08:37;;;;;;;8.63;3.22;;;22.70;56.30;;;;;;5055236;28;20021;-73
2021/06/25 09:11:21;;;;;;;10.73;3.55;;;23.00;55.40;;;;;;5055011;28;20482;-72
2021/06/25 09:13:47;;;;;;;11.45;3.33;;;23.30;55.40;;;;;;5055073;28;20120;-74
2021/06/25 09:16:27;;;;;;;13.43;3.75;;;23.30;54.60;;;;;;5054916;28;20100;-73
2021/06/25 09:18:55;;;;;;;10.77;3.60;;;23.00;54.60;;;;;;5055007;28;20025;-73
2021/06/25 09:21:22;;;;;;;9.80;3.35;;;22.50;55.80;;;;;;5054978;28;20435;-75
2021/06/25 09:23:47;;;;;;;9.82;3.40;;;22.50;56.70;;;;;;5054623;28;20116;-73
2021/06/25 09:26:15;;;;;;;9.48;3.30;;;22.80;55.80;;;;;;5054766;28;20100;-74
2021/06/25 09:28:48;;;;;;;8.15;3.13;;;23.00;55.10;;;;;;5053373;28;20544;-73
2021/06/25 09:31:21;;;;;;;9.40;3.50;;;23.10;55.10;;;;;;5054626;28;20017;-73
2021/06/25 09:33:50;;;;;;;9.25;2.88;;;23.40;55.00;;;;;;5054080;28;20174;-73
2021/06/25 09:36:28;;;;;;;7.97;2.92;;;23.50;54.20;;;;;;5054208;28;20052;-74
2021/06/25 09:39:04;;;;;;;8.10;3.10;;;23.50;54.00;;;;;;5054577;28;20037;-74
2021/06/25 09:41:30;;;;;;;7.95;3.00;;;23.40;54.40;;;;;;5054636;28;20054;-72
2021/06/25 09:44:10;;;;;;;8.25;3.20;;;23.60;54.80;;;;;;5054284;28;20397;-74
2021/06/25 09:46:41;;;;;;;7.05;3.00;;;23.70;54.50;;;;;;5054501;28;20021;-74
2021/06/25 09:49:11;;;;;;;8.75;3.47;;;23.60;54.40;;;;;;5052535;28;20082;-73
2021/06/25 09:51:41;;;;;;;11.05;4.18;;;23.90;54.70;;;;;;5053854;28;20091;-74
2021/06/25 09:54:16;;;;;;;11.32;3.10;;;24.10;54.80;;;;;;5054377;28;20044;-74
2021/06/25 09:56:50;;;;;;;10.63;3.70;;;24.40;53.70;;;;;;5054420;28;20493;-73
2021/06/25 09:59:29;;;;;;;9.48;3.50;;;25.00;51.90;;;;;;5054186;28;20028;-74
2021/06/25 10:01:57;;;;;;;9.77;3.30;;;25.00;51.40;;;;;;5052429;28;20036;-73
2021/06/25 10:04:37;;;;;;;9.20;3.20;;;24.80;52.50;;;;;;5054031;28;20021;-73
2021/06/25 10:07:14;;;;;;;11.43;3.45;;;24.70;51.80;;;;;;5052636;28;20534;-74
2021/06/25 10:09:42;;;;;;;9.90;3.30;;;24.50;52.70;;;;;;5053938;28;20097;-73
2021/06/25 10:12:14;;;;;;;7.63;3.05;;;24.40;52.90;;;;;;5053831;28;20066;-74
2021/06/25 10:14:41;;;;;;;7.65;3.20;;;24.50;52.70;;;;;;5054037;28;20056;-74
2021/06/25 10:17:09;;;;;;;8.07;3.30;;;24.20;53.50;;;;;;5053809;28;20083;-74
2021/06/25 10:19:40;;;;;;;7.22;3.25;;;24.20;53.40;;;;;;5053724;28;20108;-73
2021/06/25 10:22:11;;;;;;;8.05;3.40;;;24.20;53.70;;;;;;5053789;28;20513;-73
2021/06/25 10:24:39;;;;;;;8.38;3.65;;;24.40;53.20;;;;;;5053556;28;20056;-73
2021/06/25 10:27:08;;;;;;;9.07;3.33;;;24.00;54.30;;;;;;5053551;28;20021;-73
2021/06/25 10:29:35;;;;;;;8.55;3.50;;;23.90;55.10;;;;;;5053499;28;20096;-73
2021/06/25 10:32:02;;;;;;;9.57;3.75;;;24.10;54.50;;;;;;5053472;28;20018;-74
2021/06/25 10:34:33;;;;;;;8.55;3.38;;;24.30;54.20;;;;;;5053450;28;20028;-74
2021/06/25 10:37:02;;;;;;;10.40;4.30;;;24.30;56.40;;;;;;5053152;28;20048;-74
2021/06/25 10:39:32;;;;;;;9.45;3.85;;;24.40;56.40;;;;;;5052396;28;20037;-74
2021/06/25 10:41:58;;;;;;;9.20;3.90;;;24.40;56.70;;;;;;5051606;28;20028;-74
2021/06/25 10:44:35;;;;;;;10.77;4.90;;;24.10;57.40;;;;;;5051810;28;20136;-73
2021/06/25 10:47:20;;;;;;;9.98;4.22;;;24.10;58.60;;;;;;5052842;28;20016;-73
2021/06/25 10:50:02;;;;;;;11.52;3.92;;;24.10;58.20;;;;;;5052822;28;20021;-74
2021/06/25 10:52:32;;;;;;;9.75;4.47;;;23.90;57.60;;;;;;5052714;28;20075;-73
2021/06/25 10:55:05;;;;;;;8.05;4.07;;;23.80;57.20;;;;;;5052831;28;20400;-74
2021/06/25 10:57:33;;;;;;;8.88;3.90;;;24.00;58.00;;;;;;5053160;28;20029;-74
2021/06/25 10:59:59;;;;;;;9.73;4.18;;;24.50;57.70;;;;;;5053087;28;20028;-72
2021/06/25 11:02:45;;;;;;;8.18;4.30;;;24.60;56.00;;;;;;5053214;28;20412;-73
2021/06/25 11:05:29;;;;;;;9.45;4.57;;;24.70;56.20;;;;;;5053051;28;20512;-74
2021/06/25 11:08:19;;;;;;;10.65;4.80;;;24.90;54.70;;;;;;5052990;28;20092;-74
2021/06/25 11:10:53;;;;;;;10.60;5.32;;;24.30;55.30;;;;;;5053186;28;20040;-74
2021/06/25 11:13:24;;;;;;;9.77;4.80;;;23.70;56.30;;;;;;5053000;28;20059;-73
2021/06/25 11:16:00;;;;;;;10.80;5.32;;;23.50;58.50;;;;;;5053012;28;20029;-73
2021/06/25 11:18:27;;;;;;;8.82;4.70;;;24.10;56.30;;;;;;5051316;28;20032;-74
2021/06/25 11:21:02;;;;;;;9.75;4.90;;;24.40;55.70;;;;;;5052472;28;20025;-72
2021/06/25 11:23:39;;;;;;;10.05;4.72;;;24.50;54.50;;;;;;5052681;28;20017;-72
2021/06/25 11:26:15;;;;;;;9.35;4.40;;;24.10;53.90;;;;;;5053068;28;20070;-73
2021/06/25 11:28:42;;;;;;;8.20;3.67;;;23.70;55.40;;;;;;5052931;28;20373;-74
2021/06/25 11:31:08;;;;;;;8.73;4.00;;;23.90;55.00;;;;;;5051479;28;20013;-73
2021/06/25 11:33:47;;;;;;;8.45;3.88;;;23.90;54.90;;;;;;5052862;28;20083;-73
2021/06/25 11:36:51;;;;;;;7.78;4.10;;;24.30;55.20;;;;;;5052722;28;20088;-74
2021/06/25 11:39:34;;;;;;;8.07;4.05;;;24.50;55.50;;;;;;5052690;28;20031;-72
2021/06/25 11:42:22;;;;;;;8.10;3.72;;;24.50;53.50;;;;;;5053064;28;20021;-73
2021/06/25 11:44:51;;;;;;;8.90;4.32;;;24.80;54.10;;;;;;5052717;28;20021;-74
2021/06/25 11:47:29;;;;;;;7.20;3.63;;;25.00;52.00;;;;;;5052614;28;20025;-74
2021/06/25 11:52:34;;;;;;;7.95;3.63;;;25.10;51.90;;;;;;5053010;28;20151;-73
2021/06/25 11:55:04;;;;;;;11.90;3.92;;;25.00;53.20;;;;;;5052952;28;20432;-73
2021/06/25 11:57:32;;;;;;;9.10;3.17;;;24.60;53.00;;;;;;5056434;28;20047;-75
2021/06/25 12:00:18;;;;;;;9.02;4.28;;;25.40;52.60;;;;;;5054909;28;20484;-73
2021/06/25 12:03:02;;;;;;;10.48;3.95;;;24.80;53.10;;;;;;5054969;28;20025;-75
2021/06/25 12:05:29;;;;;;;8.18;3.90;;;24.50;54.90;;;;;;5056246;28;20082;-74
2021/06/25 12:08:14;;;;;;;8.57;3.90;;;25.00;53.80;;;;;;5056185;28;20120;-73
2021/06/25 12:10:42;;;;;;;10.25;3.75;;;24.70;54.00;;;;;;5056186;28;20049;-72
2021/06/25 12:13:08;;;;;;;9.10;3.72;;;24.50;53.90;;;;;;5056064;28;20393;-74
2021/06/25 12:15:44;;;;;;;9.25;3.80;;;24.10;55.20;;;;;;5056026;28;20029;-75
2021/06/25 12:18:18;;;;;;;10.32;4.28;;;23.90;57.80;;;;;;5055971;28;20037;-74
2021/06/25 12:20:44;;;;;;;20.87;4.93;;;23.90;54.90;;;;;;5056234;28;20029;-73
2021/06/25 12:23:10;;;;;;;15.85;4.63;;;23.30;57.00;;;;;;5055821;28;20557;-73
2021/06/25 12:25:44;;;;;;;15.00;4.70;;;23.70;57.70;;;;;;5055810;28;20030;-74
2021/06/25 12:28:10;;;;;;;9.95;4.18;;;24.00;58.40;;;;;;5055895;28;20029;-73
2021/06/25 12:30:39;;;;;;;9.45;4.45;;;23.70;56.60;;;;;;5056036;28;20052;-73
2021/06/25 12:33:06;;;;;;;9.32;4.28;;;23.40;59.20;;;;;;5054436;28;20025;-74
2021/06/25 12:35:49;;;;;;;8.65;3.90;;;24.00;58.00;;;;;;5055889;28;20056;-75
2021/06/25 12:38:19;;;;;;;8.65;3.88;;;24.10;58.50;;;;;;5055547;28;20081;-74
2021/06/25 12:41:05;;;;;;;10.32;4.70;;;24.50;57.40;;;;;;5055619;28;20079;-73
2021/06/25 12:43:46;;;;;;;8.50;4.32;;;23.30;59.50;;;;;;5055685;28;20481;-74
2021/06/25 12:46:17;;;;;;;9.18;4.20;;;23.30;60.20;;;;;;5055747;28;20032;-74
2021/06/25 12:49:04;;;;;;;12.07;5.05;;;23.10;59.90;;;;;;5055634;28;20382;-74
2021/06/25 12:51:36;;;;;;;9.02;3.90;;;23.40;58.70;;;;;;5055236;28;20017;-73
2021/06/25 12:54:03;;;;;;;8.60;4.05;;;23.20;60.10;;;;;;5055329;28;20074;-74
2021/06/25 12:56:40;;;;;;;10.77;4.38;;;23.30;60.40;;;;;;5055165;28;20061;-73
2021/06/25 12:59:19;;;;;;;9.00;4.03;;;23.30;61.00;;;;;;5055430;28;20365;-74
2021/06/25 13:01:50;;;;;;;10.50;4.50;;;23.10;61.10;;;;;;5055254;28;20025;-73
2021/06/25 13:04:20;;;;;;;8.27;3.85;;;23.10;59.70;;;;;;5055209;28;20078;-73
2021/06/25 13:06:51;;;;;;;8.52;3.60;;;23.60;60.60;;;;;;5054165;28;20074;-74
2021/06/25 13:09:38;;;;;;;10.93;4.47;;;23.70;59.80;;;;;;5055185;28;20093;-74
2021/06/25 13:12:16;;;;;;;7.30;3.72;;;23.70;59.80;;;;;;5055064;28;20387;-73
2021/06/25 13:14:52;;;;;;;7.72;3.70;;;23.50;58.30;;;;;;5055372;28;20505;-74